Terminal Aerodrome Forecast
Issued by NWS Twin Cities, MN

Home | Current Version | Previous Version | Graphics & Text | Print | Product List | Glossary On
Versions: 1 2 3 4 5 6 7 8 9 10 11 12 13 14 15 16 17 18 19 20 21 22 23 24 25 26 27 28 29 30
000
FTUS43 KMPX 052044 AAA
TAFMSP
TAF AMD
KMSP 052044Z 0521/0624 19012KT P6SM SCT025 BKN050
     FM052300 19008KT P6SM -SN SCT025 BKN050
     FM060100 20006KT P6SM BKN020
     FM060600 25005KT P6SM SCT020
     FM061200 19008KT P6SM BKN250=

USA.gov is the U.S. government's official web portal to all federal, state and local government web resources and services.